sensor_id;sensor_type;location;lat;lon;timestamp;P1;durP1;ratioP1;P2;durP2;ratioP2
77586;SDS011;66744;49.716;17.158;2023-09-19T00:01:33;16.30;;;13.18;;
77586;SDS011;66744;49.716;17.158;2023-09-19T00:04:48;17.90;;;14.05;;
77586;SDS011;66744;49.716;17.158;2023-09-19T00:08:08;17.05;;;13.38;;
77586;SDS011;66744;49.716;17.158;2023-09-19T00:11:19;15.20;;;13.57;;
77586;SDS011;66744;49.716;17.158;2023-09-19T00:14:30;17.77;;;15.10;;
77586;SDS011;66744;49.716;17.158;2023-09-19T00:17:40;13.50;;;12.10;;
77586;SDS011;66744;49.716;17.158;2023-09-19T00:20:44;14.05;;;11.02;;
77586;SDS011;66744;49.716;17.158;2023-09-19T00:23:50;13.70;;;9.77;;
77586;SDS011;66744;49.716;17.158;2023-09-19T00:27:07;10.35;;;8.50;;
77586;SDS011;66744;49.716;17.158;2023-09-19T00:30:12;11.35;;;8.13;;
77586;SDS011;66744;49.716;17.158;2023-09-19T00:33:23;8.23;;;7.35;;
77586;SDS011;66744;49.716;17.158;2023-09-19T00:36:28;8.15;;;7.35;;
77586;SDS011;66744;49.716;17.158;2023-09-19T00:39:42;9.10;;;6.30;;
77586;SDS011;66744;49.716;17.158;2023-09-19T00:42:47;6.28;;;5.20;;
77586;SDS011;66744;49.716;17.158;2023-09-19T00:46:03;5.88;;;4.85;;
77586;SDS011;66744;49.716;17.158;2023-09-19T00:49:14;7.70;;;4.00;;
77586;SDS011;66744;49.716;17.158;2023-09-19T00:52:36;4.93;;;3.80;;
77586;SDS011;66744;49.716;17.158;2023-09-19T00:55:48;6.38;;;3.30;;
77586;SDS011;66744;49.716;17.158;2023-09-19T00:58:56;4.95;;;2.97;;
77586;SDS011;66744;49.716;17.158;2023-09-19T01:01:58;4.93;;;2.88;;
77586;SDS011;66744;49.716;17.158;2023-09-19T01:05:07;3.08;;;2.58;;
77586;SDS011;66744;49.716;17.158;2023-09-19T01:08:09;6.60;;;2.85;;
77586;SDS011;66744;49.716;17.158;2023-09-19T01:11:20;3.60;;;2.35;;
77586;SDS011;66744;49.716;17.158;2023-09-19T01:17:42;4.93;;;3.30;;
77586;SDS011;66744;49.716;17.158;2023-09-19T01:21:00;3.55;;;2.70;;
77586;SDS011;66744;49.716;17.158;2023-09-19T01:27:58;5.68;;;2.70;;
77586;SDS011;66744;49.716;17.158;2023-09-19T01:31:28;4.95;;;2.15;;
77586;SDS011;66744;49.716;17.158;2023-09-19T01:38:01;3.00;;;1.90;;
77586;SDS011;66744;49.716;17.158;2023-09-19T01:41:09;4.53;;;2.05;;
77586;SDS011;66744;49.716;17.158;2023-09-19T01:44:16;6.10;;;2.33;;
77586;SDS011;66744;49.716;17.158;2023-09-19T02:00:40;4.85;;;2.80;;
77586;SDS011;66744;49.716;17.158;2023-09-19T02:03:46;2.58;;;2.05;;
77586;SDS011;66744;49.716;17.158;2023-09-19T02:06:49;3.75;;;2.10;;
77586;SDS011;66744;49.716;17.158;2023-09-19T02:09:52;2.72;;;2.20;;
77586;SDS011;66744;49.716;17.158;2023-09-19T02:13:03;4.40;;;1.98;;
77586;SDS011;66744;49.716;17.158;2023-09-19T02:16:07;2.70;;;1.60;;
77586;SDS011;66744;49.716;17.158;2023-09-19T02:19:14;4.68;;;2.38;;
77586;SDS011;66744;49.716;17.158;2023-09-19T02:22:55;3.50;;;1.60;;
77586;SDS011;66744;49.716;17.158;2023-09-19T02:26:52;3.70;;;1.80;;
77586;SDS011;66744;49.716;17.158;2023-09-19T02:29:56;2.33;;;1.40;;
77586;SDS011;66744;49.716;17.158;2023-09-19T02:33:06;3.70;;;1.90;;
77586;SDS011;66744;49.716;17.158;2023-09-19T02:36:09;3.33;;;1.60;;
77586;SDS011;66744;49.716;17.158;2023-09-19T02:39:14;2.83;;;1.50;;
77586;SDS011;66744;49.716;17.158;2023-09-19T02:42:25;2.28;;;1.17;;
77586;SDS011;66744;49.716;17.158;2023-09-19T02:45:32;3.13;;;1.35;;
77586;SDS011;66744;49.716;17.158;2023-09-19T02:48:36;4.20;;;1.40;;
77586;SDS011;66744;49.716;17.158;2023-09-19T02:51:37;2.95;;;1.70;;
77586;SDS011;66744;49.716;17.158;2023-09-19T02:54:39;4.47;;;1.67;;
77586;SDS011;66744;49.716;17.158;2023-09-19T02:57:40;3.85;;;1.85;;
77586;SDS011;66744;49.716;17.158;2023-09-19T03:00:44;5.43;;;1.52;;
77586;SDS011;66744;49.716;17.158;2023-09-19T03:03:48;3.40;;;1.35;;
77586;SDS011;66744;49.716;17.158;2023-09-19T03:06:50;2.72;;;1.45;;
77586;SDS011;66744;49.716;17.158;2023-09-19T03:09:56;3.15;;;1.70;;
77586;SDS011;66744;49.716;17.158;2023-09-19T03:13:01;3.35;;;1.35;;
77586;SDS011;66744;49.716;17.158;2023-09-19T03:16:05;4.25;;;1.60;;
77586;SDS011;66744;49.716;17.158;2023-09-19T03:19:09;3.65;;;2.08;;
77586;SDS011;66744;49.716;17.158;2023-09-19T03:22:13;3.92;;;1.42;;
77586;SDS011;66744;49.716;17.158;2023-09-19T03:25:15;2.42;;;1.52;;
77586;SDS011;66744;49.716;17.158;2023-09-19T03:28:22;4.50;;;2.05;;
77586;SDS011;66744;49.716;17.158;2023-09-19T03:31:28;5.25;;;1.40;;
77586;SDS011;66744;49.716;17.158;2023-09-19T03:34:29;2.63;;;1.77;;
77586;SDS011;66744;49.716;17.158;2023-09-19T03:37:46;2.58;;;1.30;;
77586;SDS011;66744;49.716;17.158;2023-09-19T03:41:05;2.80;;;1.67;;
77586;SDS011;66744;49.716;17.158;2023-09-19T03:44:15;2.00;;;1.45;;
77586;SDS011;66744;49.716;17.158;2023-09-19T03:47:27;6.55;;;1.85;;
77586;SDS011;66744;49.716;17.158;2023-09-19T03:50:40;4.78;;;1.73;;
77586;SDS011;66744;49.716;17.158;2023-09-19T03:53:42;5.57;;;1.70;;
77586;SDS011;66744;49.716;17.158;2023-09-19T03:56:44;5.43;;;1.80;;
77586;SDS011;66744;49.716;17.158;2023-09-19T04:00:04;3.38;;;1.92;;
77586;SDS011;66744;49.716;17.158;2023-09-19T04:03:25;4.93;;;2.03;;
77586;SDS011;66744;49.716;17.158;2023-09-19T04:06:44;4.60;;;1.90;;
77586;SDS011;66744;49.716;17.158;2023-09-19T04:09:50;3.45;;;1.83;;
77586;SDS011;66744;49.716;17.158;2023-09-19T04:13:05;2.97;;;1.67;;
77586;SDS011;66744;49.716;17.158;2023-09-19T04:16:22;3.40;;;1.83;;
77586;SDS011;66744;49.716;17.158;2023-09-19T04:19:29;7.13;;;2.05;;
77586;SDS011;66744;49.716;17.158;2023-09-19T04:22:33;5.40;;;2.75;;
77586;SDS011;66744;49.716;17.158;2023-09-19T04:25:41;6.05;;;2.25;;
77586;SDS011;66744;49.716;17.158;2023-09-19T04:28:46;5.47;;;1.80;;
77586;SDS011;66744;49.716;17.158;2023-09-19T04:32:00;3.58;;;1.25;;
77586;SDS011;66744;49.716;17.158;2023-09-19T04:35:10;3.25;;;1.85;;
77586;SDS011;66744;49.716;17.158;2023-09-19T04:38:28;2.65;;;1.98;;
77586;SDS011;66744;49.716;17.158;2023-09-19T04:41:32;3.95;;;1.52;;
77586;SDS011;66744;49.716;17.158;2023-09-19T04:44:36;3.55;;;1.45;;
77586;SDS011;66744;49.716;17.158;2023-09-19T04:47:44;3.42;;;1.40;;
77586;SDS011;66744;49.716;17.158;2023-09-19T04:51:04;2.05;;;1.60;;
77586;SDS011;66744;49.716;17.158;2023-09-19T04:54:08;3.17;;;1.85;;
77586;SDS011;66744;49.716;17.158;2023-09-19T04:57:18;3.63;;;1.80;;
77586;SDS011;66744;49.716;17.158;2023-09-19T05:00:29;4.75;;;1.63;;
77586;SDS011;66744;49.716;17.158;2023-09-19T05:03:31;4.45;;;1.58;;
77586;SDS011;66744;49.716;17.158;2023-09-19T05:06:33;2.08;;;1.77;;
77586;SDS011;66744;49.716;17.158;2023-09-19T05:09:34;2.25;;;1.20;;
77586;SDS011;66744;49.716;17.158;2023-09-19T05:12:46;4.35;;;1.73;;
77586;SDS011;66744;49.716;17.158;2023-09-19T05:16:14;2.05;;;1.45;;
77586;SDS011;66744;49.716;17.158;2023-09-19T05:19:20;3.03;;;1.33;;
77586;SDS011;66744;49.716;17.158;2023-09-19T05:22:33;3.50;;;1.48;;
77586;SDS011;66744;49.716;17.158;2023-09-19T05:25:50;2.20;;;1.20;;
77586;SDS011;66744;49.716;17.158;2023-09-19T05:29:02;1.73;;;0.93;;
77586;SDS011;66744;49.716;17.158;2023-09-19T05:32:08;1.90;;;1.08;;
77586;SDS011;66744;49.716;17.158;2023-09-19T05:35:15;3.17;;;1.45;;
77586;SDS011;66744;49.716;17.158;2023-09-19T05:38:17;2.63;;;1.13;;
77586;SDS011;66744;49.716;17.158;2023-09-19T05:41:22;6.32;;;1.23;;
77586;SDS011;66744;49.716;17.158;2023-09-19T05:44:34;3.30;;;1.42;;
77586;SDS011;66744;49.716;17.158;2023-09-19T05:47:37;2.45;;;1.10;;
77586;SDS011;66744;49.716;17.158;2023-09-19T05:51:05;3.50;;;1.52;;
77586;SDS011;66744;49.716;17.158;2023-09-19T05:54:18;3.50;;;1.65;;
77586;SDS011;66744;49.716;17.158;2023-09-19T05:57:37;1.63;;;1.10;;
77586;SDS011;66744;49.716;17.158;2023-09-19T06:01:01;3.05;;;1.20;;
77586;SDS011;66744;49.716;17.158;2023-09-19T06:04:46;4.10;;;1.50;;
77586;SDS011;66744;49.716;17.158;2023-09-19T06:07:50;3.40;;;1.38;;
77586;SDS011;66744;49.716;17.158;2023-09-19T06:11:28;2.45;;;1.48;;
77586;SDS011;66744;49.716;17.158;2023-09-19T06:14:45;3.30;;;1.23;;
77586;SDS011;66744;49.716;17.158;2023-09-19T06:18:01;2.55;;;1.35;;
77586;SDS011;66744;49.716;17.158;2023-09-19T06:21:13;2.40;;;1.48;;
77586;SDS011;66744;49.716;17.158;2023-09-19T06:24:46;2.92;;;1.30;;
77586;SDS011;66744;49.716;17.158;2023-09-19T06:28:06;2.20;;;1.38;;
77586;SDS011;66744;49.716;17.158;2023-09-19T06:31:13;4.50;;;1.48;;
77586;SDS011;66744;49.716;17.158;2023-09-19T06:34:39;4.45;;;1.52;;
77586;SDS011;66744;49.716;17.158;2023-09-19T06:37:57;2.90;;;1.40;;
77586;SDS011;66744;49.716;17.158;2023-09-19T06:41:23;3.45;;;1.20;;
77586;SDS011;66744;49.716;17.158;2023-09-19T06:45:02;3.40;;;1.38;;
77586;SDS011;66744;49.716;17.158;2023-09-19T06:48:40;4.63;;;1.92;;
77586;SDS011;66744;49.716;17.158;2023-09-19T06:52:10;5.05;;;1.85;;
77586;SDS011;66744;49.716;17.158;2023-09-19T06:55:17;3.33;;;1.95;;
77586;SDS011;66744;49.716;17.158;2023-09-19T06:58:27;3.00;;;0.98;;
77586;SDS011;66744;49.716;17.158;2023-09-19T07:01:36;1.77;;;1.45;;
77586;SDS011;66744;49.716;17.158;2023-09-19T07:04:48;2.72;;;1.42;;
77586;SDS011;66744;49.716;17.158;2023-09-19T07:08:04;2.38;;;1.33;;
77586;SDS011;66744;49.716;17.158;2023-09-19T07:11:07;2.67;;;1.55;;
77586;SDS011;66744;49.716;17.158;2023-09-19T07:14:14;4.30;;;1.70;;
77586;SDS011;66744;49.716;17.158;2023-09-19T07:17:18;2.75;;;1.23;;
77586;SDS011;66744;49.716;17.158;2023-09-19T07:20:22;4.05;;;1.55;;
77586;SDS011;66744;49.716;17.158;2023-09-19T07:23:33;3.05;;;1.42;;
77586;SDS011;66744;49.716;17.158;2023-09-19T07:26:44;4.95;;;1.52;;
77586;SDS011;66744;49.716;17.158;2023-09-19T07:29:51;3.72;;;1.30;;
77586;SDS011;66744;49.716;17.158;2023-09-19T07:32:56;2.63;;;1.25;;
77586;SDS011;66744;49.716;17.158;2023-09-19T07:36:02;3.65;;;1.15;;
77586;SDS011;66744;49.716;17.158;2023-09-19T07:39:13;6.05;;;1.25;;
77586;SDS011;66744;49.716;17.158;2023-09-19T07:42:31;3.92;;;1.63;;
77586;SDS011;66744;49.716;17.158;2023-09-19T07:45:45;2.25;;;1.27;;
77586;SDS011;66744;49.716;17.158;2023-09-19T07:48:58;2.65;;;0.95;;
77586;SDS011;66744;49.716;17.158;2023-09-19T07:52:38;4.63;;;1.45;;
77586;SDS011;66744;49.716;17.158;2023-09-19T07:56:13;4.03;;;1.23;;
77586;SDS011;66744;49.716;17.158;2023-09-19T08:00:44;2.15;;;1.30;;
77586;SDS011;66744;49.716;17.158;2023-09-19T08:04:37;2.78;;;1.48;;
77586;SDS011;66744;49.716;17.158;2023-09-19T08:18:17;3.05;;;1.45;;
77586;SDS011;66744;49.716;17.158;2023-09-19T08:22:15;4.60;;;1.35;;
77586;SDS011;66744;49.716;17.158;2023-09-19T08:26:26;4.47;;;1.52;;
77586;SDS011;66744;49.716;17.158;2023-09-19T08:30:28;3.42;;;1.95;;
77586;SDS011;66744;49.716;17.158;2023-09-19T09:58:50;2.83;;;1.27;;
77586;SDS011;66744;49.716;17.158;2023-09-19T12:42:37;2.33;;;1.75;;
77586;SDS011;66744;49.716;17.158;2023-09-19T13:49:20;1.75;;;1.15;;
77586;SDS011;66744;49.716;17.158;2023-09-19T14:02:20;1.83;;;1.35;;
77586;SDS011;66744;49.716;17.158;2023-09-19T14:06:16;2.35;;;1.60;;
77586;SDS011;66744;49.716;17.158;2023-09-19T14:09:39;1.85;;;1.58;;
77586;SDS011;66744;49.716;17.158;2023-09-19T14:13:02;4.18;;;1.60;;
77586;SDS011;66744;49.716;17.158;2023-09-19T14:17:09;1.35;;;1.25;;
77586;SDS011;66744;49.716;17.158;2023-09-19T14:25:07;1.90;;;1.45;;
77586;SDS011;66744;49.716;17.158;2023-09-19T14:29:19;1.90;;;1.45;;
77586;SDS011;66744;49.716;17.158;2023-09-19T14:33:19;1.52;;;1.38;;
77586;SDS011;66744;49.716;17.158;2023-09-19T14:37:53;2.28;;;1.55;;
77586;SDS011;66744;49.716;17.158;2023-09-19T14:51:29;1.50;;;1.30;;
77586;SDS011;66744;49.716;17.158;2023-09-19T14:55:06;2.05;;;1.48;;
77586;SDS011;66744;49.716;17.158;2023-09-19T15:02:19;2.15;;;1.40;;
77586;SDS011;66744;49.716;17.158;2023-09-19T15:10:20;1.50;;;1.20;;
77586;SDS011;66744;49.716;17.158;2023-09-19T15:13:55;2.85;;;1.35;;
77586;SDS011;66744;49.716;17.158;2023-09-19T15:17:58;2.13;;;0.98;;
77586;SDS011;66744;49.716;17.158;2023-09-19T15:22:00;1.98;;;1.25;;
77586;SDS011;66744;49.716;17.158;2023-09-19T15:34:06;1.40;;;1.30;;
77586;SDS011;66744;49.716;17.158;2023-09-19T15:46:11;1.67;;;1.25;;
77586;SDS011;66744;49.716;17.158;2023-09-19T15:49:39;1.88;;;1.15;;
77586;SDS011;66744;49.716;17.158;2023-09-19T15:53:16;2.92;;;1.80;;
77586;SDS011;66744;49.716;17.158;2023-09-19T15:56:48;1.98;;;1.40;;
77586;SDS011;66744;49.716;17.158;2023-09-19T16:00:41;1.92;;;1.63;;
77586;SDS011;66744;49.716;17.158;2023-09-19T16:03:53;1.52;;;1.35;;
77586;SDS011;66744;49.716;17.158;2023-09-19T16:07:18;1.65;;;1.25;;
77586;SDS011;66744;49.716;17.158;2023-09-19T16:21:08;1.70;;;1.48;;
77586;SDS011;66744;49.716;17.158;2023-09-19T16:25:01;3.53;;;1.70;;
77586;SDS011;66744;49.716;17.158;2023-09-19T16:49:30;1.88;;;1.60;;
77586;SDS011;66744;49.716;17.158;2023-09-19T17:02:07;1.50;;;1.33;;
77586;SDS011;66744;49.716;17.158;2023-09-19T17:06:16;3.42;;;1.60;;
77586;SDS011;66744;49.716;17.158;2023-09-19T17:10:01;1.85;;;1.55;;
77586;SDS011;66744;49.716;17.158;2023-09-19T17:14:04;2.05;;;1.70;;
77586;SDS011;66744;49.716;17.158;2023-09-19T17:17:44;3.03;;;1.60;;
77586;SDS011;66744;49.716;17.158;2023-09-19T17:21:47;1.55;;;1.20;;
77586;SDS011;66744;49.716;17.158;2023-09-19T17:30:23;1.77;;;1.10;;
77586;SDS011;66744;49.716;17.158;2023-09-19T17:43:16;2.13;;;1.35;;
77586;SDS011;66744;49.716;17.158;2023-09-19T17:51:02;1.75;;;1.30;;
77586;SDS011;66744;49.716;17.158;2023-09-19T17:57:59;3.22;;;1.58;;
77586;SDS011;66744;49.716;17.158;2023-09-19T18:06:41;1.63;;;1.48;;
77586;SDS011;66744;49.716;17.158;2023-09-19T18:11:15;3.20;;;1.40;;
77586;SDS011;66744;49.716;17.158;2023-09-19T18:19:12;2.65;;;1.55;;
77586;SDS011;66744;49.716;17.158;2023-09-19T18:23:07;3.17;;;2.03;;
77586;SDS011;66744;49.716;17.158;2023-09-19T18:26:45;2.67;;;1.52;;
77586;SDS011;66744;49.716;17.158;2023-09-19T18:35:44;1.90;;;1.80;;
77586;SDS011;66744;49.716;17.158;2023-09-19T18:43:08;2.63;;;1.23;;
77586;SDS011;66744;49.716;17.158;2023-09-19T19:04:17;1.60;;;1.50;;
77586;SDS011;66744;49.716;17.158;2023-09-19T19:07:50;1.73;;;1.63;;
77586;SDS011;66744;49.716;17.158;2023-09-19T19:12:03;4.63;;;2.25;;
77586;SDS011;66744;49.716;17.158;2023-09-19T19:16:00;5.38;;;2.00;;
77586;SDS011;66744;49.716;17.158;2023-09-19T19:20:00;2.47;;;1.90;;
77586;SDS011;66744;49.716;17.158;2023-09-19T19:44:36;2.20;;;2.00;;
77586;SDS011;66744;49.716;17.158;2023-09-19T19:48:12;4.47;;;2.00;;
77586;SDS011;66744;49.716;17.158;2023-09-19T19:51:38;2.60;;;2.00;;
77586;SDS011;66744;49.716;17.158;2023-09-19T19:54:57;4.43;;;1.40;;
77586;SDS011;66744;49.716;17.158;2023-09-19T19:58:30;7.03;;;2.20;;
77586;SDS011;66744;49.716;17.158;2023-09-19T20:02:45;6.32;;;1.92;;
77586;SDS011;66744;49.716;17.158;2023-09-19T20:05:57;1.90;;;1.65;;
77586;SDS011;66744;49.716;17.158;2023-09-19T20:09:42;2.67;;;1.30;;
77586;SDS011;66744;49.716;17.158;2023-09-19T20:13:52;5.47;;;2.30;;
77586;SDS011;66744;49.716;17.158;2023-09-19T20:17:13;3.80;;;1.60;;
77586;SDS011;66744;49.716;17.158;2023-09-19T20:20:24;4.70;;;1.65;;
77586;SDS011;66744;49.716;17.158;2023-09-19T20:23:28;3.17;;;1.73;;
77586;SDS011;66744;49.716;17.158;2023-09-19T20:26:46;2.75;;;2.08;;
77586;SDS011;66744;49.716;17.158;2023-09-19T20:29:48;5.05;;;1.52;;
77586;SDS011;66744;49.716;17.158;2023-09-19T20:32:49;3.05;;;2.08;;
77586;SDS011;66744;49.716;17.158;2023-09-19T20:35:51;3.35;;;1.60;;
77586;SDS011;66744;49.716;17.158;2023-09-19T20:39:06;3.03;;;1.40;;
77586;SDS011;66744;49.716;17.158;2023-09-19T20:42:25;3.25;;;1.63;;
77586;SDS011;66744;49.716;17.158;2023-09-19T20:45:30;1.98;;;1.63;;
77586;SDS011;66744;49.716;17.158;2023-09-19T20:48:42;2.78;;;1.95;;
77586;SDS011;66744;49.716;17.158;2023-09-19T20:51:55;3.75;;;1.77;;
77586;SDS011;66744;49.716;17.158;2023-09-19T20:55:42;6.22;;;1.80;;
77586;SDS011;66744;49.716;17.158;2023-09-19T20:58:51;2.38;;;1.80;;
77586;SDS011;66744;49.716;17.158;2023-09-19T21:02:01;2.50;;;1.60;;
77586;SDS011;66744;49.716;17.158;2023-09-19T21:05:10;2.42;;;1.98;;
77586;SDS011;66744;49.716;17.158;2023-09-19T21:08:26;6.07;;;1.70;;
77586;SDS011;66744;49.716;17.158;2023-09-19T21:11:27;2.83;;;1.17;;
77586;SDS011;66744;49.716;17.158;2023-09-19T21:14:34;1.65;;;1.20;;
77586;SDS011;66744;49.716;17.158;2023-09-19T21:17:40;4.20;;;1.65;;
77586;SDS011;66744;49.716;17.158;2023-09-19T21:20:47;1.42;;;1.20;;
77586;SDS011;66744;49.716;17.158;2023-09-19T21:24:02;3.55;;;1.85;;
77586;SDS011;66744;49.716;17.158;2023-09-19T21:27:12;6.20;;;2.03;;
77586;SDS011;66744;49.716;17.158;2023-09-19T21:30:18;4.10;;;1.63;;
77586;SDS011;66744;49.716;17.158;2023-09-19T21:33:25;2.20;;;1.67;;
77586;SDS011;66744;49.716;17.158;2023-09-19T21:36:27;2.65;;;1.40;;
77586;SDS011;66744;49.716;17.158;2023-09-19T21:39:36;2.13;;;1.40;;
77586;SDS011;66744;49.716;17.158;2023-09-19T21:42:46;2.17;;;1.75;;
77586;SDS011;66744;49.716;17.158;2023-09-19T21:46:00;2.22;;;1.55;;
77586;SDS011;66744;49.716;17.158;2023-09-19T21:49:07;4.47;;;1.48;;
77586;SDS011;66744;49.716;17.158;2023-09-19T21:52:21;3.70;;;1.67;;
77586;SDS011;66744;49.716;17.158;2023-09-19T21:55:35;5.13;;;1.40;;
77586;SDS011;66744;49.716;17.158;2023-09-19T21:59:04;4.78;;;1.60;;
77586;SDS011;66744;49.716;17.158;2023-09-19T22:02:11;4.38;;;1.98;;
77586;SDS011;66744;49.716;17.158;2023-09-19T22:05:26;2.65;;;1.73;;
77586;SDS011;66744;49.716;17.158;2023-09-19T22:08:29;2.95;;;2.30;;
77586;SDS011;66744;49.716;17.158;2023-09-19T22:11:44;5.60;;;1.63;;
77586;SDS011;66744;49.716;17.158;2023-09-19T22:14:54;5.03;;;2.30;;
77586;SDS011;66744;49.716;17.158;2023-09-19T22:18:10;5.03;;;2.40;;
77586;SDS011;66744;49.716;17.158;2023-09-19T22:21:23;2.15;;;1.77;;
77586;SDS011;66744;49.716;17.158;2023-09-19T22:24:50;3.25;;;1.85;;
77586;SDS011;66744;49.716;17.158;2023-09-19T22:27:54;5.75;;;2.38;;
77586;SDS011;66744;49.716;17.158;2023-09-19T22:31:03;2.20;;;1.90;;
77586;SDS011;66744;49.716;17.158;2023-09-19T22:34:07;3.28;;;2.03;;
77586;SDS011;66744;49.716;17.158;2023-09-19T22:37:15;2.42;;;1.90;;
77586;SDS011;66744;49.716;17.158;2023-09-19T22:40:19;6.05;;;2.03;;
77586;SDS011;66744;49.716;17.158;2023-09-19T22:43:40;2.05;;;1.80;;
77586;SDS011;66744;49.716;17.158;2023-09-19T22:47:03;2.75;;;2.20;;
77586;SDS011;66744;49.716;17.158;2023-09-19T22:50:23;2.97;;;1.75;;
77586;SDS011;66744;49.716;17.158;2023-09-19T22:53:28;5.90;;;3.63;;
77586;SDS011;66744;49.716;17.158;2023-09-19T22:56:47;6.20;;;3.03;;
77586;SDS011;66744;49.716;17.158;2023-09-19T22:59:52;5.20;;;3.63;;
77586;SDS011;66744;49.716;17.158;2023-09-19T23:03:04;3.38;;;2.92;;
77586;SDS011;66744;49.716;17.158;2023-09-19T23:06:27;2.08;;;1.70;;
77586;SDS011;66744;49.716;17.158;2023-09-19T23:09:30;3.17;;;2.30;;
77586;SDS011;66744;49.716;17.158;2023-09-19T23:12:42;2.33;;;1.85;;
77586;SDS011;66744;49.716;17.158;2023-09-19T23:16:02;4.95;;;1.95;;
77586;SDS011;66744;49.716;17.158;2023-09-19T23:19:15;5.68;;;1.65;;
77586;SDS011;66744;49.716;17.158;2023-09-19T23:22:36;2.00;;;1.52;;
77586;SDS011;66744;49.716;17.158;2023-09-19T23:25:40;2.17;;;1.98;;
77586;SDS011;66744;49.716;17.158;2023-09-19T23:28:45;1.95;;;1.75;;
77586;SDS011;66744;49.716;17.158;2023-09-19T23:32:03;2.03;;;1.83;;
77586;SDS011;66744;49.716;17.158;2023-09-19T23:35:19;2.33;;;2.13;;
77586;SDS011;66744;49.716;17.158;2023-09-19T23:38:45;2.55;;;2.35;;
77586;SDS011;66744;49.716;17.158;2023-09-19T23:42:02;2.92;;;1.95;;
77586;SDS011;66744;49.716;17.158;2023-09-19T23:45:09;3.58;;;1.63;;
77586;SDS011;66744;49.716;17.158;2023-09-19T23:48:15;1.70;;;1.60;;
77586;SDS011;66744;49.716;17.158;2023-09-19T23:51:21;2.45;;;1.77;;
77586;SDS011;66744;49.716;17.158;2023-09-19T23:54:29;3.00;;;2.05;;
77586;SDS011;66744;49.716;17.158;2023-09-19T23:57:40;2.08;;;1.83;;
